sensor_id;sensor_type;location;lat;lon;timestamp;P1;durP1;ratioP1;P2;durP2;ratioP2
29314;SDS011;16320;53.954;9.506;2023-04-24T00:03:13;31.75;;;18.75;;
29314;SDS011;16320;53.954;9.506;2023-04-24T00:06:18;26.85;;;21.20;;
29314;SDS011;16320;53.954;9.506;2023-04-24T00:09:22;29.63;;;23.15;;
29314;SDS011;16320;53.954;9.506;2023-04-24T00:12:27;30.10;;;23.75;;
29314;SDS011;16320;53.954;9.506;2023-04-24T00:15:32;35.65;;;27.05;;
29314;SDS011;16320;53.954;9.506;2023-04-24T00:18:36;37.67;;;27.73;;
29314;SDS011;16320;53.954;9.506;2023-04-24T00:21:41;33.85;;;25.35;;
29314;SDS011;16320;53.954;9.506;2023-04-24T00:24:45;32.70;;;26.13;;
29314;SDS011;16320;53.954;9.506;2023-04-24T00:27:49;37.65;;;25.75;;
29314;SDS011;16320;53.954;9.506;2023-04-24T00:30:54;37.63;;;27.73;;
29314;SDS011;16320;53.954;9.506;2023-04-24T00:33:58;38.95;;;25.90;;
29314;SDS011;16320;53.954;9.506;2023-04-24T00:37:03;37.63;;;26.45;;
29314;SDS011;16320;53.954;9.506;2023-04-24T00:40:08;36.88;;;26.50;;
29314;SDS011;16320;53.954;9.506;2023-04-24T00:43:13;39.67;;;28.20;;
29314;SDS011;16320;53.954;9.506;2023-04-24T00:49:21;35.53;;;26.92;;
29314;SDS011;16320;53.954;9.506;2023-04-24T00:52:26;34.00;;;26.45;;
29314;SDS011;16320;53.954;9.506;2023-04-24T00:55:31;36.00;;;26.35;;
29314;SDS011;16320;53.954;9.506;2023-04-24T00:58:36;38.83;;;27.38;;
29314;SDS011;16320;53.954;9.506;2023-04-24T01:01:41;38.72;;;26.45;;
29314;SDS011;16320;53.954;9.506;2023-04-24T01:04:46;39.72;;;27.40;;
29314;SDS011;16320;53.954;9.506;2023-04-24T01:07:50;37.67;;;28.27;;
29314;SDS011;16320;53.954;9.506;2023-04-24T01:10:55;39.88;;;29.10;;
29314;SDS011;16320;53.954;9.506;2023-04-24T01:14:01;41.40;;;28.67;;
29314;SDS011;16320;53.954;9.506;2023-04-24T01:17:06;44.53;;;29.67;;
29314;SDS011;16320;53.954;9.506;2023-04-24T01:20:10;41.15;;;29.65;;
29314;SDS011;16320;53.954;9.506;2023-04-24T01:23:15;41.88;;;29.27;;
29314;SDS011;16320;53.954;9.506;2023-04-24T01:26:20;37.80;;;27.20;;
29314;SDS011;16320;53.954;9.506;2023-04-24T01:29:26;39.20;;;27.30;;
29314;SDS011;16320;53.954;9.506;2023-04-24T01:32:31;38.53;;;28.25;;
29314;SDS011;16320;53.954;9.506;2023-04-24T01:35:37;40.72;;;29.13;;
29314;SDS011;16320;53.954;9.506;2023-04-24T01:38:41;40.03;;;28.55;;
29314;SDS011;16320;53.954;9.506;2023-04-24T01:41:45;42.60;;;28.85;;
29314;SDS011;16320;53.954;9.506;2023-04-24T01:44:50;40.70;;;27.02;;
29314;SDS011;16320;53.954;9.506;2023-04-24T01:47:55;38.33;;;27.42;;
29314;SDS011;16320;53.954;9.506;2023-04-24T01:51:00;35.83;;;26.00;;
29314;SDS011;16320;53.954;9.506;2023-04-24T01:54:05;39.42;;;25.92;;
29314;SDS011;16320;53.954;9.506;2023-04-24T01:57:09;34.20;;;24.55;;
29314;SDS011;16320;53.954;9.506;2023-04-24T02:00:14;32.80;;;24.40;;
29314;SDS011;16320;53.954;9.506;2023-04-24T02:03:18;33.25;;;24.15;;
29314;SDS011;16320;53.954;9.506;2023-04-24T02:06:23;33.83;;;23.23;;
29314;SDS011;16320;53.954;9.506;2023-04-24T02:09:27;32.10;;;22.60;;
29314;SDS011;16320;53.954;9.506;2023-04-24T02:12:31;30.05;;;21.33;;
29314;SDS011;16320;53.954;9.506;2023-04-24T02:15:36;26.15;;;19.92;;
29314;SDS011;16320;53.954;9.506;2023-04-24T02:18:40;27.75;;;19.27;;
29314;SDS011;16320;53.954;9.506;2023-04-24T02:21:45;25.35;;;18.15;;
29314;SDS011;16320;53.954;9.506;2023-04-24T02:27:53;25.67;;;17.95;;
29314;SDS011;16320;53.954;9.506;2023-04-24T02:30:58;22.20;;;17.73;;
29314;SDS011;16320;53.954;9.506;2023-04-24T02:34:02;23.27;;;16.42;;
29314;SDS011;16320;53.954;9.506;2023-04-24T02:37:07;23.00;;;16.33;;
29314;SDS011;16320;53.954;9.506;2023-04-24T02:40:12;22.63;;;16.90;;
29314;SDS011;16320;53.954;9.506;2023-04-24T02:43:16;19.88;;;15.50;;
29314;SDS011;16320;53.954;9.506;2023-04-24T02:46:20;20.23;;;15.20;;
29314;SDS011;16320;53.954;9.506;2023-04-24T02:49:25;17.70;;;14.48;;
29314;SDS011;16320;53.954;9.506;2023-04-24T02:52:29;16.73;;;14.63;;
29314;SDS011;16320;53.954;9.506;2023-04-24T02:55:34;16.67;;;13.70;;
29314;SDS011;16320;53.954;9.506;2023-04-24T02:58:39;16.85;;;13.65;;
29314;SDS011;16320;53.954;9.506;2023-04-24T03:01:43;20.73;;;13.95;;
29314;SDS011;16320;53.954;9.506;2023-04-24T03:04:48;15.73;;;11.07;;
29314;SDS011;16320;53.954;9.506;2023-04-24T03:07:52;14.05;;;10.95;;
29314;SDS011;16320;53.954;9.506;2023-04-24T03:10:56;12.00;;;10.35;;
29314;SDS011;16320;53.954;9.506;2023-04-24T03:14:01;9.25;;;8.30;;
29314;SDS011;16320;53.954;9.506;2023-04-24T03:17:05;9.98;;;8.93;;
29314;SDS011;16320;53.954;9.506;2023-04-24T03:20:10;10.63;;;8.18;;
29314;SDS011;16320;53.954;9.506;2023-04-24T03:23:14;8.95;;;8.02;;
29314;SDS011;16320;53.954;9.506;2023-04-24T03:26:19;9.02;;;8.07;;
29314;SDS011;16320;53.954;9.506;2023-04-24T03:29:23;9.65;;;7.55;;
29314;SDS011;16320;53.954;9.506;2023-04-24T03:32:29;7.93;;;7.13;;
29314;SDS011;16320;53.954;9.506;2023-04-24T03:35:36;9.20;;;8.23;;
29314;SDS011;16320;53.954;9.506;2023-04-24T03:38:40;9.13;;;7.60;;
29314;SDS011;16320;53.954;9.506;2023-04-24T03:41:44;9.27;;;8.27;;
29314;SDS011;16320;53.954;9.506;2023-04-24T03:44:49;11.13;;;9.35;;
29314;SDS011;16320;53.954;9.506;2023-04-24T03:47:53;9.88;;;8.73;;
29314;SDS011;16320;53.954;9.506;2023-04-24T03:50:58;12.02;;;9.77;;
29314;SDS011;16320;53.954;9.506;2023-04-24T03:54:02;11.48;;;8.55;;
29314;SDS011;16320;53.954;9.506;2023-04-24T03:57:07;8.70;;;7.78;;
29314;SDS011;16320;53.954;9.506;2023-04-24T04:00:11;10.30;;;7.65;;
29314;SDS011;16320;53.954;9.506;2023-04-24T04:03:16;8.68;;;7.10;;
29314;SDS011;16320;53.954;9.506;2023-04-24T04:06:20;7.55;;;6.63;;
29314;SDS011;16320;53.954;9.506;2023-04-24T04:09:25;9.70;;;7.40;;
29314;SDS011;16320;53.954;9.506;2023-04-24T04:12:29;7.63;;;6.45;;
29314;SDS011;16320;53.954;9.506;2023-04-24T04:15:34;7.53;;;6.20;;
29314;SDS011;16320;53.954;9.506;2023-04-24T04:18:38;7.50;;;6.38;;
29314;SDS011;16320;53.954;9.506;2023-04-24T04:21:42;9.15;;;7.00;;
29314;SDS011;16320;53.954;9.506;2023-04-24T04:24:49;7.97;;;7.18;;
29314;SDS011;16320;53.954;9.506;2023-04-24T04:27:54;7.90;;;7.10;;
29314;SDS011;16320;53.954;9.506;2023-04-24T04:30:58;11.55;;;7.00;;
29314;SDS011;16320;53.954;9.506;2023-04-24T04:34:04;9.13;;;7.53;;
29314;SDS011;16320;53.954;9.506;2023-04-24T04:37:09;10.27;;;8.27;;
29314;SDS011;16320;53.954;9.506;2023-04-24T04:40:14;8.40;;;7.18;;
29314;SDS011;16320;53.954;9.506;2023-04-24T04:43:19;8.07;;;7.22;;
29314;SDS011;16320;53.954;9.506;2023-04-24T04:46:23;8.85;;;7.43;;
29314;SDS011;16320;53.954;9.506;2023-04-24T04:49:29;8.45;;;6.72;;
29314;SDS011;16320;53.954;9.506;2023-04-24T04:52:34;8.57;;;7.35;;
29314;SDS011;16320;53.954;9.506;2023-04-24T04:55:38;8.10;;;7.30;;
29314;SDS011;16320;53.954;9.506;2023-04-24T04:58:43;8.43;;;7.57;;
29314;SDS011;16320;53.954;9.506;2023-04-24T05:01:47;8.23;;;7.43;;
29314;SDS011;16320;53.954;9.506;2023-04-24T05:04:51;9.05;;;7.47;;
29314;SDS011;16320;53.954;9.506;2023-04-24T05:07:56;10.90;;;8.93;;
29314;SDS011;16320;53.954;9.506;2023-04-24T05:11:00;8.35;;;7.45;;
29314;SDS011;16320;53.954;9.506;2023-04-24T05:14:05;9.60;;;7.95;;
29314;SDS011;16320;53.954;9.506;2023-04-24T05:17:09;8.77;;;7.88;;
29314;SDS011;16320;53.954;9.506;2023-04-24T05:20:14;9.00;;;8.05;;
29314;SDS011;16320;53.954;9.506;2023-04-24T05:23:18;9.82;;;7.25;;
29314;SDS011;16320;53.954;9.506;2023-04-24T05:26:23;10.52;;;7.60;;
29314;SDS011;16320;53.954;9.506;2023-04-24T05:29:27;8.73;;;7.30;;
29314;SDS011;16320;53.954;9.506;2023-04-24T05:32:34;11.45;;;7.10;;
29314;SDS011;16320;53.954;9.506;2023-04-24T05:35:38;8.82;;;7.43;;
29314;SDS011;16320;53.954;9.506;2023-04-24T05:38:53;8.50;;;6.63;;
29314;SDS011;16320;53.954;9.506;2023-04-24T05:41:59;7.40;;;6.60;;
29314;SDS011;16320;53.954;9.506;2023-04-24T05:45:05;8.20;;;6.97;;
29314;SDS011;16320;53.954;9.506;2023-04-24T05:48:10;7.25;;;5.88;;
29314;SDS011;16320;53.954;9.506;2023-04-24T05:51:14;10.50;;;6.25;;
29314;SDS011;16320;53.954;9.506;2023-04-24T05:54:19;6.63;;;5.93;;
29314;SDS011;16320;53.954;9.506;2023-04-24T05:57:23;7.68;;;6.30;;
29314;SDS011;16320;53.954;9.506;2023-04-24T06:00:28;7.90;;;6.10;;
29314;SDS011;16320;53.954;9.506;2023-04-24T06:03:33;6.47;;;5.80;;
29314;SDS011;16320;53.954;9.506;2023-04-24T06:06:37;6.50;;;5.63;;
29314;SDS011;16320;53.954;9.506;2023-04-24T06:12:46;7.43;;;5.10;;
29314;SDS011;16320;53.954;9.506;2023-04-24T06:15:51;5.90;;;5.30;;
29314;SDS011;16320;53.954;9.506;2023-04-24T06:18:56;7.88;;;5.30;;
29314;SDS011;16320;53.954;9.506;2023-04-24T06:22:01;6.15;;;5.10;;
29314;SDS011;16320;53.954;9.506;2023-04-24T06:25:05;11.05;;;5.20;;
29314;SDS011;16320;53.954;9.506;2023-04-24T06:28:11;7.53;;;5.38;;
29314;SDS011;16320;53.954;9.506;2023-04-24T06:31:16;6.25;;;5.20;;
29314;SDS011;16320;53.954;9.506;2023-04-24T06:34:20;4.95;;;4.45;;
29314;SDS011;16320;53.954;9.506;2023-04-24T06:37:24;5.60;;;5.03;;
29314;SDS011;16320;53.954;9.506;2023-04-24T06:40:29;7.43;;;4.65;;
29314;SDS011;16320;53.954;9.506;2023-04-24T06:43:33;6.97;;;4.75;;
29314;SDS011;16320;53.954;9.506;2023-04-24T06:46:37;5.30;;;4.78;;
29314;SDS011;16320;53.954;9.506;2023-04-24T06:49:44;6.32;;;4.90;;
29314;SDS011;16320;53.954;9.506;2023-04-24T06:52:49;7.50;;;5.32;;
29314;SDS011;16320;53.954;9.506;2023-04-24T06:55:53;5.50;;;5.00;;
29314;SDS011;16320;53.954;9.506;2023-04-24T06:58:58;5.97;;;5.15;;
29314;SDS011;16320;53.954;9.506;2023-04-24T07:02:15;8.13;;;5.40;;
29314;SDS011;16320;53.954;9.506;2023-04-24T07:05:20;7.93;;;5.80;;
29314;SDS011;16320;53.954;9.506;2023-04-24T07:08:24;7.18;;;5.38;;
29314;SDS011;16320;53.954;9.506;2023-04-24T07:11:29;7.95;;;5.18;;
29314;SDS011;16320;53.954;9.506;2023-04-24T07:14:33;6.13;;;5.22;;
29314;SDS011;16320;53.954;9.506;2023-04-24T07:17:37;9.95;;;5.57;;
29314;SDS011;16320;53.954;9.506;2023-04-24T07:20:42;6.72;;;5.38;;
29314;SDS011;16320;53.954;9.506;2023-04-24T07:23:47;8.25;;;5.82;;
29314;SDS011;16320;53.954;9.506;2023-04-24T07:26:51;6.25;;;4.78;;
29314;SDS011;16320;53.954;9.506;2023-04-24T07:29:56;5.60;;;5.03;;
29314;SDS011;16320;53.954;9.506;2023-04-24T07:33:00;6.45;;;5.28;;
29314;SDS011;16320;53.954;9.506;2023-04-24T07:36:05;7.90;;;6.07;;
29314;SDS011;16320;53.954;9.506;2023-04-24T07:39:10;6.15;;;5.55;;
29314;SDS011;16320;53.954;9.506;2023-04-24T07:42:14;7.70;;;6.43;;
29314;SDS011;16320;53.954;9.506;2023-04-24T07:45:18;5.82;;;5.22;;
29314;SDS011;16320;53.954;9.506;2023-04-24T07:48:22;8.02;;;5.35;;
29314;SDS011;16320;53.954;9.506;2023-04-24T07:51:29;5.95;;;5.35;;
29314;SDS011;16320;53.954;9.506;2023-04-24T07:54:34;8.25;;;5.38;;
29314;SDS011;16320;53.954;9.506;2023-04-24T07:57:40;6.82;;;5.30;;
29314;SDS011;16320;53.954;9.506;2023-04-24T08:00:46;6.35;;;5.75;;
29314;SDS011;16320;53.954;9.506;2023-04-24T08:03:51;9.52;;;5.45;;
29314;SDS011;16320;53.954;9.506;2023-04-24T08:06:56;7.10;;;6.40;;
29314;SDS011;16320;53.954;9.506;2023-04-24T08:10:00;7.97;;;6.45;;
29314;SDS011;16320;53.954;9.506;2023-04-24T08:13:05;7.13;;;6.07;;
29314;SDS011;16320;53.954;9.506;2023-04-24T08:16:10;7.25;;;5.97;;
29314;SDS011;16320;53.954;9.506;2023-04-24T08:19:14;7.60;;;6.07;;
29314;SDS011;16320;53.954;9.506;2023-04-24T08:22:19;7.63;;;6.18;;
29314;SDS011;16320;53.954;9.506;2023-04-24T08:28:28;8.82;;;6.03;;
29314;SDS011;16320;53.954;9.506;2023-04-24T08:31:33;6.55;;;5.93;;
29314;SDS011;16320;53.954;9.506;2023-04-24T08:34:38;6.88;;;5.55;;
29314;SDS011;16320;53.954;9.506;2023-04-24T08:37:42;6.55;;;5.65;;
29314;SDS011;16320;53.954;9.506;2023-04-24T08:40:46;6.30;;;5.65;;
29314;SDS011;16320;53.954;9.506;2023-04-24T08:43:53;7.10;;;6.40;;
29314;SDS011;16320;53.954;9.506;2023-04-24T08:46:58;8.30;;;6.57;;
29314;SDS011;16320;53.954;9.506;2023-04-24T08:50:04;7.25;;;6.30;;
29314;SDS011;16320;53.954;9.506;2023-04-24T08:53:09;8.98;;;6.55;;
29314;SDS011;16320;53.954;9.506;2023-04-24T08:56:14;8.00;;;7.20;;
29314;SDS011;16320;53.954;9.506;2023-04-24T08:59:19;13.60;;;7.22;;
29314;SDS011;16320;53.954;9.506;2023-04-24T09:02:25;7.53;;;6.78;;
29314;SDS011;16320;53.954;9.506;2023-04-24T09:05:30;10.52;;;7.68;;
29314;SDS011;16320;53.954;9.506;2023-04-24T09:08:36;10.73;;;6.97;;
29314;SDS011;16320;53.954;9.506;2023-04-24T09:11:41;9.70;;;7.82;;
29314;SDS011;16320;53.954;9.506;2023-04-24T09:14:45;7.95;;;6.78;;
29314;SDS011;16320;53.954;9.506;2023-04-24T09:17:51;9.98;;;8.23;;
29314;SDS011;16320;53.954;9.506;2023-04-24T09:20:57;16.60;;;8.40;;
29314;SDS011;16320;53.954;9.506;2023-04-24T09:24:05;10.55;;;8.02;;
29314;SDS011;16320;53.954;9.506;2023-04-24T09:27:12;9.45;;;7.43;;
29314;SDS011;16320;53.954;9.506;2023-04-24T09:30:20;9.55;;;8.00;;
29314;SDS011;16320;53.954;9.506;2023-04-24T09:33:26;10.73;;;7.93;;
29314;SDS011;16320;53.954;9.506;2023-04-24T09:36:34;11.52;;;8.70;;
29314;SDS011;16320;53.954;9.506;2023-04-24T09:39:45;12.05;;;8.05;;
29314;SDS011;16320;53.954;9.506;2023-04-24T09:46:04;10.48;;;9.07;;
29314;SDS011;16320;53.954;9.506;2023-04-24T09:49:27;12.32;;;9.75;;
29314;SDS011;16320;53.954;9.506;2023-04-24T09:52:33;12.70;;;10.35;;
29314;SDS011;16320;53.954;9.506;2023-04-24T09:55:44;11.98;;;10.35;;
29314;SDS011;16320;53.954;9.506;2023-04-24T09:58:51;12.13;;;10.02;;
29314;SDS011;16320;53.954;9.506;2023-04-24T10:01:56;11.13;;;9.65;;
29314;SDS011;16320;53.954;9.506;2023-04-24T10:05:02;14.27;;;9.70;;
29314;SDS011;16320;53.954;9.506;2023-04-24T10:08:08;10.80;;;8.65;;
29314;SDS011;16320;53.954;9.506;2023-04-24T10:11:15;11.40;;;8.77;;
29314;SDS011;16320;53.954;9.506;2023-04-24T10:14:21;10.73;;;8.77;;
29314;SDS011;16320;53.954;9.506;2023-04-24T10:17:28;10.70;;;9.02;;
29314;SDS011;16320;53.954;9.506;2023-04-24T10:20:35;11.98;;;9.57;;
29314;SDS011;16320;53.954;9.506;2023-04-24T10:23:41;15.65;;;9.35;;
29314;SDS011;16320;53.954;9.506;2023-04-24T10:26:46;15.30;;;9.55;;
29314;SDS011;16320;53.954;9.506;2023-04-24T10:29:52;12.40;;;10.02;;
29314;SDS011;16320;53.954;9.506;2023-04-24T10:32:59;12.68;;;9.48;;
29314;SDS011;16320;53.954;9.506;2023-04-24T10:36:04;13.25;;;9.75;;
29314;SDS011;16320;53.954;9.506;2023-04-24T10:39:11;11.95;;;9.48;;
29314;SDS011;16320;53.954;9.506;2023-04-24T10:42:21;14.38;;;11.00;;
29314;SDS011;16320;53.954;9.506;2023-04-24T10:45:26;13.00;;;10.90;;
29314;SDS011;16320;53.954;9.506;2023-04-24T10:48:31;14.35;;;11.95;;
29314;SDS011;16320;53.954;9.506;2023-04-24T10:51:54;17.98;;;13.13;;
29314;SDS011;16320;53.954;9.506;2023-04-24T10:55:09;20.20;;;12.77;;
29314;SDS011;16320;53.954;9.506;2023-04-24T10:58:16;15.23;;;12.32;;
29314;SDS011;16320;53.954;9.506;2023-04-24T11:01:27;16.75;;;12.85;;
29314;SDS011;16320;53.954;9.506;2023-04-24T11:04:36;16.40;;;11.82;;
29314;SDS011;16320;53.954;9.506;2023-04-24T11:11:16;15.20;;;12.43;;
29314;SDS011;16320;53.954;9.506;2023-04-24T11:14:21;17.67;;;13.80;;
29314;SDS011;16320;53.954;9.506;2023-04-24T11:17:29;15.82;;;13.30;;
29314;SDS011;16320;53.954;9.506;2023-04-24T11:20:41;16.38;;;12.02;;
29314;SDS011;16320;53.954;9.506;2023-04-24T11:23:48;17.10;;;11.82;;
29314;SDS011;16320;53.954;9.506;2023-04-24T11:26:54;16.30;;;11.60;;
29314;SDS011;16320;53.954;9.506;2023-04-24T11:30:02;16.20;;;11.98;;
29314;SDS011;16320;53.954;9.506;2023-04-24T11:33:07;20.58;;;12.65;;
29314;SDS011;16320;53.954;9.506;2023-04-24T11:36:12;16.17;;;12.32;;
29314;SDS011;16320;53.954;9.506;2023-04-24T11:39:17;19.88;;;13.40;;
29314;SDS011;16320;53.954;9.506;2023-04-24T11:42:21;16.67;;;12.55;;
29314;SDS011;16320;53.954;9.506;2023-04-24T11:45:30;17.23;;;13.35;;
29314;SDS011;16320;53.954;9.506;2023-04-24T11:48:35;16.92;;;13.35;;
29314;SDS011;16320;53.954;9.506;2023-04-24T11:51:44;17.20;;;14.13;;
29314;SDS011;16320;53.954;9.506;2023-04-24T11:54:56;17.85;;;14.63;;
29314;SDS011;16320;53.954;9.506;2023-04-24T11:58:02;19.25;;;14.73;;
29314;SDS011;16320;53.954;9.506;2023-04-24T12:01:06;19.73;;;12.38;;
29314;SDS011;16320;53.954;9.506;2023-04-24T12:04:11;14.48;;;12.10;;
29314;SDS011;16320;53.954;9.506;2023-04-24T12:07:16;12.65;;;11.25;;
29314;SDS011;16320;53.954;9.506;2023-04-24T12:10:21;13.90;;;11.13;;
29314;SDS011;16320;53.954;9.506;2023-04-24T12:13:27;16.73;;;10.82;;
29314;SDS011;16320;53.954;9.506;2023-04-24T12:16:32;12.95;;;10.85;;
29314;SDS011;16320;53.954;9.506;2023-04-24T12:19:36;16.40;;;10.82;;
29314;SDS011;16320;53.954;9.506;2023-04-24T12:26:03;21.05;;;14.57;;
29314;SDS011;16320;53.954;9.506;2023-04-24T12:29:08;21.13;;;15.68;;
29314;SDS011;16320;53.954;9.506;2023-04-24T12:32:16;22.38;;;16.27;;
29314;SDS011;16320;53.954;9.506;2023-04-24T12:35:24;20.75;;;16.67;;
29314;SDS011;16320;53.954;9.506;2023-04-24T12:38:31;21.27;;;16.20;;
29314;SDS011;16320;53.954;9.506;2023-04-24T12:41:50;19.35;;;16.67;;
29314;SDS011;16320;53.954;9.506;2023-04-24T12:45:03;22.38;;;16.67;;
29314;SDS011;16320;53.954;9.506;2023-04-24T12:48:10;26.30;;;16.92;;
29314;SDS011;16320;53.954;9.506;2023-04-24T12:51:15;23.38;;;18.02;;
29314;SDS011;16320;53.954;9.506;2023-04-24T12:54:19;27.02;;;18.48;;
29314;SDS011;16320;53.954;9.506;2023-04-24T12:57:24;26.48;;;19.35;;
29314;SDS011;16320;53.954;9.506;2023-04-24T13:00:30;30.55;;;20.83;;
29314;SDS011;16320;53.954;9.506;2023-04-24T13:03:36;27.75;;;22.08;;
29314;SDS011;16320;53.954;9.506;2023-04-24T13:06:41;33.78;;;23.45;;
29314;SDS011;16320;53.954;9.506;2023-04-24T13:09:45;29.50;;;22.42;;
29314;SDS011;16320;53.954;9.506;2023-04-24T13:12:52;33.63;;;24.50;;
29314;SDS011;16320;53.954;9.506;2023-04-24T13:15:56;37.95;;;25.38;;
29314;SDS011;16320;53.954;9.506;2023-04-24T13:19:01;43.10;;;27.30;;
29314;SDS011;16320;53.954;9.506;2023-04-24T13:22:05;30.65;;;19.75;;
29314;SDS011;16320;53.954;9.506;2023-04-24T13:25:10;28.45;;;18.67;;
29314;SDS011;16320;53.954;9.506;2023-04-24T13:28:14;32.08;;;20.10;;
29314;SDS011;16320;53.954;9.506;2023-04-24T13:31:18;33.22;;;21.08;;
29314;SDS011;16320;53.954;9.506;2023-04-24T13:34:23;35.47;;;22.65;;
29314;SDS011;16320;53.954;9.506;2023-04-24T13:37:29;40.05;;;24.42;;
29314;SDS011;16320;53.954;9.506;2023-04-24T13:40:34;42.58;;;24.33;;
29314;SDS011;16320;53.954;9.506;2023-04-24T13:43:38;45.47;;;27.23;;
29314;SDS011;16320;53.954;9.506;2023-04-24T13:46:46;44.75;;;26.58;;
29314;SDS011;16320;53.954;9.506;2023-04-24T13:49:52;53.53;;;27.25;;
29314;SDS011;16320;53.954;9.506;2023-04-24T13:52:57;44.63;;;26.92;;
29314;SDS011;16320;53.954;9.506;2023-04-24T13:56:11;45.17;;;27.30;;
29314;SDS011;16320;53.954;9.506;2023-04-24T13:59:17;41.00;;;24.70;;
29314;SDS011;16320;53.954;9.506;2023-04-24T14:02:26;38.00;;;23.88;;
29314;SDS011;16320;53.954;9.506;2023-04-24T14:05:31;25.63;;;15.68;;
29314;SDS011;16320;53.954;9.506;2023-04-24T14:08:35;22.05;;;14.90;;
29314;SDS011;16320;53.954;9.506;2023-04-24T14:11:40;16.73;;;10.88;;
29314;SDS011;16320;53.954;9.506;2023-04-24T14:14:47;15.02;;;10.07;;
29314;SDS011;16320;53.954;9.506;2023-04-24T14:17:52;21.05;;;10.55;;
29314;SDS011;16320;53.954;9.506;2023-04-24T14:20:57;21.00;;;11.70;;
29314;SDS011;16320;53.954;9.506;2023-04-24T14:24:04;22.48;;;10.88;;
29314;SDS011;16320;53.954;9.506;2023-04-24T14:27:08;19.08;;;12.00;;
29314;SDS011;16320;53.954;9.506;2023-04-24T14:30:13;26.48;;;12.52;;
29314;SDS011;16320;53.954;9.506;2023-04-24T14:33:18;19.23;;;10.30;;
29314;SDS011;16320;53.954;9.506;2023-04-24T14:36:23;19.77;;;10.73;;
29314;SDS011;16320;53.954;9.506;2023-04-24T14:39:28;16.00;;;10.07;;
29314;SDS011;16320;53.954;9.506;2023-04-24T14:42:32;17.10;;;10.30;;
29314;SDS011;16320;53.954;9.506;2023-04-24T14:45:37;24.77;;;11.02;;
29314;SDS011;16320;53.954;9.506;2023-04-24T14:48:41;17.92;;;11.43;;
29314;SDS011;16320;53.954;9.506;2023-04-24T14:54:50;18.05;;;10.40;;
29314;SDS011;16320;53.954;9.506;2023-04-24T14:57:54;16.85;;;10.02;;
29314;SDS011;16320;53.954;9.506;2023-04-24T15:00:59;24.63;;;11.05;;
29314;SDS011;16320;53.954;9.506;2023-04-24T15:04:03;16.17;;;10.65;;
29314;SDS011;16320;53.954;9.506;2023-04-24T15:07:08;29.35;;;12.88;;
29314;SDS011;16320;53.954;9.506;2023-04-24T15:10:13;25.15;;;15.77;;
29314;SDS011;16320;53.954;9.506;2023-04-24T15:13:17;24.83;;;15.25;;
29314;SDS011;16320;53.954;9.506;2023-04-24T15:16:23;26.15;;;15.68;;
29314;SDS011;16320;53.954;9.506;2023-04-24T15:19:28;40.42;;;22.33;;
29314;SDS011;16320;53.954;9.506;2023-04-24T15:22:33;25.60;;;16.38;;
29314;SDS011;16320;53.954;9.506;2023-04-24T15:25:37;29.95;;;15.23;;
29314;SDS011;16320;53.954;9.506;2023-04-24T15:28:42;27.40;;;16.55;;
29314;SDS011;16320;53.954;9.506;2023-04-24T15:31:46;31.15;;;18.05;;
29314;SDS011;16320;53.954;9.506;2023-04-24T15:34:51;36.53;;;16.70;;
29314;SDS011;16320;53.954;9.506;2023-04-24T15:38:11;29.73;;;17.50;;
29314;SDS011;16320;53.954;9.506;2023-04-24T15:41:15;35.88;;;19.40;;
29314;SDS011;16320;53.954;9.506;2023-04-24T15:44:22;41.17;;;20.90;;
29314;SDS011;16320;53.954;9.506;2023-04-24T15:47:26;43.80;;;23.98;;
29314;SDS011;16320;53.954;9.506;2023-04-24T15:50:32;52.50;;;25.42;;
29314;SDS011;16320;53.954;9.506;2023-04-24T15:53:37;49.13;;;26.50;;
29314;SDS011;16320;53.954;9.506;2023-04-24T15:56:41;57.13;;;27.08;;
29314;SDS011;16320;53.954;9.506;2023-04-24T15:59:48;47.30;;;25.58;;
29314;SDS011;16320;53.954;9.506;2023-04-24T16:02:53;57.47;;;24.85;;
29314;SDS011;16320;53.954;9.506;2023-04-24T16:05:57;38.58;;;19.88;;
29314;SDS011;16320;53.954;9.506;2023-04-24T16:09:02;42.67;;;20.45;;
29314;SDS011;16320;53.954;9.506;2023-04-24T16:12:06;34.05;;;16.42;;
29314;SDS011;16320;53.954;9.506;2023-04-24T16:15:13;26.83;;;13.38;;
29314;SDS011;16320;53.954;9.506;2023-04-24T16:18:17;53.50;;;22.40;;
29314;SDS011;16320;53.954;9.506;2023-04-24T16:21:22;30.95;;;13.98;;
29314;SDS011;16320;53.954;9.506;2023-04-24T16:24:27;25.55;;;11.70;;
29314;SDS011;16320;53.954;9.506;2023-04-24T16:27:32;23.80;;;11.32;;
29314;SDS011;16320;53.954;9.506;2023-04-24T16:30:37;23.65;;;10.63;;
29314;SDS011;16320;53.954;9.506;2023-04-24T16:33:51;20.55;;;9.55;;
29314;SDS011;16320;53.954;9.506;2023-04-24T16:36:56;20.00;;;9.73;;
29314;SDS011;16320;53.954;9.506;2023-04-24T16:40:02;19.38;;;9.95;;
29314;SDS011;16320;53.954;9.506;2023-04-24T16:43:13;18.17;;;9.38;;
29314;SDS011;16320;53.954;9.506;2023-04-24T16:46:18;20.58;;;11.50;;
29314;SDS011;16320;53.954;9.506;2023-04-24T16:49:23;23.10;;;11.82;;
29314;SDS011;16320;53.954;9.506;2023-04-24T16:52:27;19.45;;;11.32;;
29314;SDS011;16320;53.954;9.506;2023-04-24T16:55:31;29.38;;;13.98;;
29314;SDS011;16320;53.954;9.506;2023-04-24T16:58:35;27.40;;;11.95;;
29314;SDS011;16320;53.954;9.506;2023-04-24T17:01:40;20.88;;;11.82;;
29314;SDS011;16320;53.954;9.506;2023-04-24T17:04:45;25.77;;;11.57;;
29314;SDS011;16320;53.954;9.506;2023-04-24T17:07:51;26.60;;;12.68;;
29314;SDS011;16320;53.954;9.506;2023-04-24T17:13:59;47.97;;;20.45;;
29314;SDS011;16320;53.954;9.506;2023-04-24T17:17:03;34.28;;;12.27;;
29314;SDS011;16320;53.954;9.506;2023-04-24T17:20:08;28.42;;;13.25;;
29314;SDS011;16320;53.954;9.506;2023-04-24T17:23:24;22.45;;;11.68;;
29314;SDS011;16320;53.954;9.506;2023-04-24T17:26:29;31.83;;;13.50;;
29314;SDS011;16320;53.954;9.506;2023-04-24T17:29:35;36.25;;;14.30;;
29314;SDS011;16320;53.954;9.506;2023-04-24T17:32:39;31.20;;;13.88;;
29314;SDS011;16320;53.954;9.506;2023-04-24T17:35:45;34.35;;;13.38;;
29314;SDS011;16320;53.954;9.506;2023-04-24T17:38:50;34.58;;;14.27;;
29314;SDS011;16320;53.954;9.506;2023-04-24T17:41:54;36.47;;;17.70;;
29314;SDS011;16320;53.954;9.506;2023-04-24T17:44:58;40.35;;;18.33;;
29314;SDS011;16320;53.954;9.506;2023-04-24T17:48:03;45.65;;;16.20;;
29314;SDS011;16320;53.954;9.506;2023-04-24T17:51:08;25.10;;;12.43;;
29314;SDS011;16320;53.954;9.506;2023-04-24T17:54:12;29.10;;;11.88;;
29314;SDS011;16320;53.954;9.506;2023-04-24T17:57:19;21.45;;;9.48;;
29314;SDS011;16320;53.954;9.506;2023-04-24T18:00:23;28.60;;;10.48;;
29314;SDS011;16320;53.954;9.506;2023-04-24T18:03:28;16.95;;;7.95;;
29314;SDS011;16320;53.954;9.506;2023-04-24T18:06:32;15.75;;;6.72;;
29314;SDS011;16320;53.954;9.506;2023-04-24T18:09:37;38.50;;;15.02;;
29314;SDS011;16320;53.954;9.506;2023-04-24T18:12:41;21.58;;;6.43;;
29314;SDS011;16320;53.954;9.506;2023-04-24T18:18:49;23.58;;;7.45;;
29314;SDS011;16320;53.954;9.506;2023-04-24T18:21:54;16.05;;;6.85;;
29314;SDS011;16320;53.954;9.506;2023-04-24T18:24:59;16.40;;;5.78;;
29314;SDS011;16320;53.954;9.506;2023-04-24T18:28:04;13.32;;;5.53;;
29314;SDS011;16320;53.954;9.506;2023-04-24T18:31:08;13.57;;;5.38;;
29314;SDS011;16320;53.954;9.506;2023-04-24T18:34:12;16.10;;;6.63;;
29314;SDS011;16320;53.954;9.506;2023-04-24T18:37:16;20.95;;;6.53;;
29314;SDS011;16320;53.954;9.506;2023-04-24T18:40:21;17.25;;;5.30;;
29314;SDS011;16320;53.954;9.506;2023-04-24T18:43:25;15.20;;;5.38;;
29314;SDS011;16320;53.954;9.506;2023-04-24T18:46:30;10.73;;;5.32;;
29314;SDS011;16320;53.954;9.506;2023-04-24T18:49:40;16.33;;;5.05;;